sensor_id;sensor_type;location;lat;lon;timestamp;temperature;humidity
31733;DHT22;18312;51.486;7.144;2023-03-12T00:02:19;1.60;99.90
31733;DHT22;18312;51.486;7.144;2023-03-12T00:04:46;1.50;99.90
31733;DHT22;18312;51.486;7.144;2023-03-12T00:07:12;1.50;99.90
31733;DHT22;18312;51.486;7.144;2023-03-12T00:09:39;1.40;99.90
31733;DHT22;18312;51.486;7.144;2023-03-12T00:12:06;1.40;99.90
31733;DHT22;18312;51.486;7.144;2023-03-12T00:14:33;1.30;99.90
31733;DHT22;18312;51.486;7.144;2023-03-12T00:16:59;1.30;99.90
31733;DHT22;18312;51.486;7.144;2023-03-12T00:19:27;1.30;99.90
31733;DHT22;18312;51.486;7.144;2023-03-12T00:21:53;1.20;99.90
31733;DHT22;18312;51.486;7.144;2023-03-12T00:24:20;1.20;99.90
31733;DHT22;18312;51.486;7.144;2023-03-12T00:26:47;1.10;99.90
31733;DHT22;18312;51.486;7.144;2023-03-12T00:29:13;1.20;99.90
31733;DHT22;18312;51.486;7.144;2023-03-12T00:31:40;1.20;99.90
31733;DHT22;18312;51.486;7.144;2023-03-12T00:34:06;1.20;99.90
31733;DHT22;18312;51.486;7.144;2023-03-12T00:36:34;1.20;99.90
31733;DHT22;18312;51.486;7.144;2023-03-12T00:39:01;1.30;99.90
31733;DHT22;18312;51.486;7.144;2023-03-12T00:41:28;1.40;99.90
31733;DHT22;18312;51.486;7.144;2023-03-12T00:43:55;1.40;99.90
31733;DHT22;18312;51.486;7.144;2023-03-12T00:46:21;1.40;99.90
31733;DHT22;18312;51.486;7.144;2023-03-12T00:48:48;1.50;99.90
31733;DHT22;18312;51.486;7.144;2023-03-12T00:51:15;1.50;99.90
31733;DHT22;18312;51.486;7.144;2023-03-12T00:53:43;1.60;99.90
31733;DHT22;18312;51.486;7.144;2023-03-12T00:56:10;1.60;99.90
31733;DHT22;18312;51.486;7.144;2023-03-12T00:58:36;1.60;99.90
31733;DHT22;18312;51.486;7.144;2023-03-12T01:01:03;1.60;99.90
31733;DHT22;18312;51.486;7.144;2023-03-12T01:03:29;1.60;99.90
31733;DHT22;18312;51.486;7.144;2023-03-12T01:05:56;1.70;99.90
31733;DHT22;18312;51.486;7.144;2023-03-12T01:08:23;1.70;99.90
31733;DHT22;18312;51.486;7.144;2023-03-12T01:10:51;1.80;99.90
31733;DHT22;18312;51.486;7.144;2023-03-12T01:13:18;1.90;99.90
31733;DHT22;18312;51.486;7.144;2023-03-12T01:15:44;1.90;99.90
31733;DHT22;18312;51.486;7.144;2023-03-12T01:18:11;1.90;99.90
31733;DHT22;18312;51.486;7.144;2023-03-12T01:20:37;2.00;99.90
31733;DHT22;18312;51.486;7.144;2023-03-12T01:23:05;1.90;99.90
31733;DHT22;18312;51.486;7.144;2023-03-12T01:25:32;2.00;99.90
31733;DHT22;18312;51.486;7.144;2023-03-12T01:28:00;1.90;99.90
31733;DHT22;18312;51.486;7.144;2023-03-12T01:30:27;1.80;99.90
31733;DHT22;18312;51.486;7.144;2023-03-12T01:32:54;1.80;99.90
31733;DHT22;18312;51.486;7.144;2023-03-12T01:35:20;1.80;99.90
31733;DHT22;18312;51.486;7.144;2023-03-12T01:37:47;1.80;99.90
31733;DHT22;18312;51.486;7.144;2023-03-12T01:40:14;1.80;99.90
31733;DHT22;18312;51.486;7.144;2023-03-12T01:42:41;1.90;99.90
31733;DHT22;18312;51.486;7.144;2023-03-12T01:47:50;1.90;99.90
31733;DHT22;18312;51.486;7.144;2023-03-12T01:50:17;2.00;99.90
31733;DHT22;18312;51.486;7.144;2023-03-12T01:52:43;2.10;99.90
31733;DHT22;18312;51.486;7.144;2023-03-12T01:55:10;2.10;99.90
31733;DHT22;18312;51.486;7.144;2023-03-12T01:57:38;2.10;99.90
31733;DHT22;18312;51.486;7.144;2023-03-12T02:00:07;2.10;99.90
31733;DHT22;18312;51.486;7.144;2023-03-12T02:02:36;2.10;99.90
31733;DHT22;18312;51.486;7.144;2023-03-12T02:05:06;2.10;99.90
31733;DHT22;18312;51.486;7.144;2023-03-12T02:07:36;2.20;99.90
31733;DHT22;18312;51.486;7.144;2023-03-12T02:10:03;2.10;99.90
31733;DHT22;18312;51.486;7.144;2023-03-12T02:12:30;2.20;99.90
31733;DHT22;18312;51.486;7.144;2023-03-12T02:14:57;2.20;99.90
31733;DHT22;18312;51.486;7.144;2023-03-12T02:17:23;2.20;99.90
31733;DHT22;18312;51.486;7.144;2023-03-12T02:19:51;2.20;99.90
31733;DHT22;18312;51.486;7.144;2023-03-12T02:22:20;2.20;99.90
31733;DHT22;18312;51.486;7.144;2023-03-12T02:24:49;2.20;99.90
31733;DHT22;18312;51.486;7.144;2023-03-12T02:27:17;2.30;99.90
31733;DHT22;18312;51.486;7.144;2023-03-12T02:29:45;2.30;99.90
31733;DHT22;18312;51.486;7.144;2023-03-12T02:32:14;2.30;99.90
31733;DHT22;18312;51.486;7.144;2023-03-12T02:34:42;2.30;99.90
31733;DHT22;18312;51.486;7.144;2023-03-12T02:37:09;2.30;99.90
31733;DHT22;18312;51.486;7.144;2023-03-12T02:39:35;2.30;99.90
31733;DHT22;18312;51.486;7.144;2023-03-12T02:42:02;2.40;99.90
31733;DHT22;18312;51.486;7.144;2023-03-12T02:44:31;2.30;99.90
31733;DHT22;18312;51.486;7.144;2023-03-12T02:46:59;2.30;99.90
31733;DHT22;18312;51.486;7.144;2023-03-12T02:49:26;2.30;99.90
31733;DHT22;18312;51.486;7.144;2023-03-12T02:51:53;2.30;99.90
31733;DHT22;18312;51.486;7.144;2023-03-12T02:54:20;2.40;99.90
31733;DHT22;18312;51.486;7.144;2023-03-12T02:56:47;2.40;99.90
31733;DHT22;18312;51.486;7.144;2023-03-12T02:59:14;2.40;99.90
31733;DHT22;18312;51.486;7.144;2023-03-12T03:01:42;2.50;99.90
31733;DHT22;18312;51.486;7.144;2023-03-12T03:04:10;2.50;99.90
31733;DHT22;18312;51.486;7.144;2023-03-12T03:06:38;2.50;99.90
31733;DHT22;18312;51.486;7.144;2023-03-12T03:09:05;2.50;99.90
31733;DHT22;18312;51.486;7.144;2023-03-12T03:11:31;2.50;99.90
31733;DHT22;18312;51.486;7.144;2023-03-12T03:13:58;2.50;99.90
31733;DHT22;18312;51.486;7.144;2023-03-12T03:16:25;2.50;99.90
31733;DHT22;18312;51.486;7.144;2023-03-12T03:18:52;2.40;99.90
31733;DHT22;18312;51.486;7.144;2023-03-12T03:21:19;2.30;99.90
31733;DHT22;18312;51.486;7.144;2023-03-12T03:23:47;2.20;99.90
31733;DHT22;18312;51.486;7.144;2023-03-12T03:26:14;2.10;99.90
31733;DHT22;18312;51.486;7.144;2023-03-12T03:28:41;2.10;99.90
31733;DHT22;18312;51.486;7.144;2023-03-12T03:31:08;2.10;99.90
31733;DHT22;18312;51.486;7.144;2023-03-12T03:33:35;2.10;99.90
31733;DHT22;18312;51.486;7.144;2023-03-12T03:36:04;2.10;99.90
31733;DHT22;18312;51.486;7.144;2023-03-12T03:38:31;2.20;99.90
31733;DHT22;18312;51.486;7.144;2023-03-12T03:40:58;2.20;99.90
31733;DHT22;18312;51.486;7.144;2023-03-12T03:43:25;2.20;99.90
31733;DHT22;18312;51.486;7.144;2023-03-12T03:45:55;2.30;99.90
31733;DHT22;18312;51.486;7.144;2023-03-12T03:48:21;2.30;99.90
31733;DHT22;18312;51.486;7.144;2023-03-12T03:50:48;2.40;99.90
31733;DHT22;18312;51.486;7.144;2023-03-12T03:53:16;2.40;99.90
31733;DHT22;18312;51.486;7.144;2023-03-12T03:55:43;2.50;99.90
31733;DHT22;18312;51.486;7.144;2023-03-12T03:58:10;2.50;99.90
31733;DHT22;18312;51.486;7.144;2023-03-12T04:00:37;2.50;99.90
31733;DHT22;18312;51.486;7.144;2023-03-12T04:03:03;2.40;99.90
31733;DHT22;18312;51.486;7.144;2023-03-12T04:05:30;2.40;99.90
31733;DHT22;18312;51.486;7.144;2023-03-12T04:07:56;2.40;99.90
31733;DHT22;18312;51.486;7.144;2023-03-12T04:10:28;2.40;99.90
31733;DHT22;18312;51.486;7.144;2023-03-12T04:12:55;2.40;99.90
31733;DHT22;18312;51.486;7.144;2023-03-12T04:15:22;2.50;99.90
31733;DHT22;18312;51.486;7.144;2023-03-12T04:17:48;2.40;99.90
31733;DHT22;18312;51.486;7.144;2023-03-12T04:20:15;2.50;99.90
31733;DHT22;18312;51.486;7.144;2023-03-12T04:22:42;2.50;99.90
31733;DHT22;18312;51.486;7.144;2023-03-12T04:25:08;2.60;99.90
31733;DHT22;18312;51.486;7.144;2023-03-12T04:27:36;2.70;99.90
31733;DHT22;18312;51.486;7.144;2023-03-12T04:30:03;2.70;99.90
31733;DHT22;18312;51.486;7.144;2023-03-12T04:32:30;2.80;99.90
31733;DHT22;18312;51.486;7.144;2023-03-12T04:34:56;2.80;99.90
31733;DHT22;18312;51.486;7.144;2023-03-12T04:37:23;2.90;99.90
31733;DHT22;18312;51.486;7.144;2023-03-12T04:39:50;2.90;99.90
31733;DHT22;18312;51.486;7.144;2023-03-12T04:42:16;2.90;99.90
31733;DHT22;18312;51.486;7.144;2023-03-12T04:44:44;2.90;99.90
31733;DHT22;18312;51.486;7.144;2023-03-12T04:47:11;2.90;99.90
31733;DHT22;18312;51.486;7.144;2023-03-12T04:49:37;2.90;99.90
31733;DHT22;18312;51.486;7.144;2023-03-12T04:52:04;2.90;99.90
31733;DHT22;18312;51.486;7.144;2023-03-12T04:54:31;3.00;99.90
31733;DHT22;18312;51.486;7.144;2023-03-12T04:56:58;3.00;99.90
31733;DHT22;18312;51.486;7.144;2023-03-12T04:59:24;3.00;99.90
31733;DHT22;18312;51.486;7.144;2023-03-12T05:01:52;3.00;99.90
31733;DHT22;18312;51.486;7.144;2023-03-12T05:04:19;3.00;99.90
31733;DHT22;18312;51.486;7.144;2023-03-12T05:06:45;3.00;99.90
31733;DHT22;18312;51.486;7.144;2023-03-12T05:09:12;3.00;99.90
31733;DHT22;18312;51.486;7.144;2023-03-12T05:11:38;3.00;99.90
31733;DHT22;18312;51.486;7.144;2023-03-12T05:14:05;3.00;99.90
31733;DHT22;18312;51.486;7.144;2023-03-12T05:16:31;3.00;99.90
31733;DHT22;18312;51.486;7.144;2023-03-12T05:18:59;3.00;99.90
31733;DHT22;18312;51.486;7.144;2023-03-12T05:21:26;3.10;99.90
31733;DHT22;18312;51.486;7.144;2023-03-12T05:23:53;3.10;99.90
31733;DHT22;18312;51.486;7.144;2023-03-12T05:26:20;3.10;99.90
31733;DHT22;18312;51.486;7.144;2023-03-12T05:28:47;3.20;99.90
31733;DHT22;18312;51.486;7.144;2023-03-12T05:31:14;3.20;99.90
31733;DHT22;18312;51.486;7.144;2023-03-12T05:33:41;3.20;99.90
31733;DHT22;18312;51.486;7.144;2023-03-12T05:36:09;3.30;99.90
31733;DHT22;18312;51.486;7.144;2023-03-12T05:38:36;3.30;99.90
31733;DHT22;18312;51.486;7.144;2023-03-12T05:41:03;3.30;99.90
31733;DHT22;18312;51.486;7.144;2023-03-12T05:43:29;3.30;99.90
31733;DHT22;18312;51.486;7.144;2023-03-12T05:45:57;3.30;99.90
31733;DHT22;18312;51.486;7.144;2023-03-12T05:48:24;3.30;99.90
31733;DHT22;18312;51.486;7.144;2023-03-12T05:50:50;3.30;99.90
31733;DHT22;18312;51.486;7.144;2023-03-12T05:53:18;3.30;99.90
31733;DHT22;18312;51.486;7.144;2023-03-12T05:55:45;3.30;99.90
31733;DHT22;18312;51.486;7.144;2023-03-12T05:58:12;3.30;99.90
31733;DHT22;18312;51.486;7.144;2023-03-12T06:00:39;3.30;99.90
31733;DHT22;18312;51.486;7.144;2023-03-12T06:03:06;3.30;99.90
31733;DHT22;18312;51.486;7.144;2023-03-12T06:05:34;3.30;99.90
31733;DHT22;18312;51.486;7.144;2023-03-12T06:08:01;3.30;99.90
31733;DHT22;18312;51.486;7.144;2023-03-12T06:10:30;3.30;99.90
31733;DHT22;18312;51.486;7.144;2023-03-12T06:12:56;3.30;99.90
31733;DHT22;18312;51.486;7.144;2023-03-12T06:15:23;3.30;99.90
31733;DHT22;18312;51.486;7.144;2023-03-12T06:17:49;3.40;99.90
31733;DHT22;18312;51.486;7.144;2023-03-12T06:20:16;3.40;99.90
31733;DHT22;18312;51.486;7.144;2023-03-12T06:22:43;3.40;99.90
31733;DHT22;18312;51.486;7.144;2023-03-12T06:25:09;3.30;99.90
31733;DHT22;18312;51.486;7.144;2023-03-12T06:27:37;3.30;99.90
31733;DHT22;18312;51.486;7.144;2023-03-12T06:30:05;3.30;99.90
31733;DHT22;18312;51.486;7.144;2023-03-12T06:32:32;3.30;99.90
31733;DHT22;18312;51.486;7.144;2023-03-12T06:34:59;3.40;99.90
31733;DHT22;18312;51.486;7.144;2023-03-12T06:37:26;3.50;99.90
31733;DHT22;18312;51.486;7.144;2023-03-12T06:39:53;3.60;99.90
31733;DHT22;18312;51.486;7.144;2023-03-12T06:42:19;3.60;99.90
31733;DHT22;18312;51.486;7.144;2023-03-12T06:44:48;3.50;99.90
31733;DHT22;18312;51.486;7.144;2023-03-12T06:47:14;3.50;99.90
31733;DHT22;18312;51.486;7.144;2023-03-12T06:49:41;3.50;99.90
31733;DHT22;18312;51.486;7.144;2023-03-12T06:52:08;3.50;99.90
31733;DHT22;18312;51.486;7.144;2023-03-12T06:54:34;3.50;99.90
31733;DHT22;18312;51.486;7.144;2023-03-12T06:57:01;3.50;99.90
31733;DHT22;18312;51.486;7.144;2023-03-12T06:59:27;3.50;99.90
31733;DHT22;18312;51.486;7.144;2023-03-12T07:01:55;3.60;99.90
31733;DHT22;18312;51.486;7.144;2023-03-12T07:04:22;3.50;99.90
31733;DHT22;18312;51.486;7.144;2023-03-12T07:06:48;3.50;99.90
31733;DHT22;18312;51.486;7.144;2023-03-12T07:09:15;3.50;99.90
31733;DHT22;18312;51.486;7.144;2023-03-12T07:11:42;3.50;99.90
31733;DHT22;18312;51.486;7.144;2023-03-12T07:14:09;3.50;99.90
31733;DHT22;18312;51.486;7.144;2023-03-12T07:16:35;3.50;99.90
31733;DHT22;18312;51.486;7.144;2023-03-12T07:19:03;3.60;99.90
31733;DHT22;18312;51.486;7.144;2023-03-12T07:21:30;3.60;99.90
31733;DHT22;18312;51.486;7.144;2023-03-12T07:23:56;3.60;99.90
31733;DHT22;18312;51.486;7.144;2023-03-12T07:26:23;3.60;99.90
31733;DHT22;18312;51.486;7.144;2023-03-12T07:28:49;3.60;99.90
31733;DHT22;18312;51.486;7.144;2023-03-12T07:31:16;3.60;99.90
31733;DHT22;18312;51.486;7.144;2023-03-12T07:33:42;3.60;99.90
31733;DHT22;18312;51.486;7.144;2023-03-12T07:36:10;3.60;99.90
31733;DHT22;18312;51.486;7.144;2023-03-12T07:38:37;3.60;99.90
31733;DHT22;18312;51.486;7.144;2023-03-12T07:41:03;3.60;99.90
31733;DHT22;18312;51.486;7.144;2023-03-12T07:43:30;3.60;99.90
31733;DHT22;18312;51.486;7.144;2023-03-12T07:45:56;3.60;99.90
31733;DHT22;18312;51.486;7.144;2023-03-12T07:48:23;3.70;99.90
31733;DHT22;18312;51.486;7.144;2023-03-12T07:50:49;3.70;99.90
31733;DHT22;18312;51.486;7.144;2023-03-12T07:53:17;3.70;99.90
31733;DHT22;18312;51.486;7.144;2023-03-12T07:55:44;3.70;99.90
31733;DHT22;18312;51.486;7.144;2023-03-12T07:58:11;3.80;99.90
31733;DHT22;18312;51.486;7.144;2023-03-12T08:00:38;3.80;99.90
31733;DHT22;18312;51.486;7.144;2023-03-12T08:03:05;3.80;99.90
31733;DHT22;18312;51.486;7.144;2023-03-12T08:05:31;3.80;99.90
31733;DHT22;18312;51.486;7.144;2023-03-12T08:07:58;3.80;99.90
31733;DHT22;18312;51.486;7.144;2023-03-12T08:10:26;3.80;99.90
31733;DHT22;18312;51.486;7.144;2023-03-12T08:12:52;3.80;99.90
31733;DHT22;18312;51.486;7.144;2023-03-12T08:15:19;3.90;99.90
31733;DHT22;18312;51.486;7.144;2023-03-12T08:17:45;3.90;99.90
31733;DHT22;18312;51.486;7.144;2023-03-12T08:20:12;4.00;99.90
31733;DHT22;18312;51.486;7.144;2023-03-12T08:22:39;4.10;99.90
31733;DHT22;18312;51.486;7.144;2023-03-12T08:25:06;4.20;99.90
31733;DHT22;18312;51.486;7.144;2023-03-12T08:27:34;4.10;99.90
31733;DHT22;18312;51.486;7.144;2023-03-12T08:30:01;4.10;99.90
31733;DHT22;18312;51.486;7.144;2023-03-12T08:32:28;4.20;99.90
31733;DHT22;18312;51.486;7.144;2023-03-12T08:34:54;4.20;99.90
31733;DHT22;18312;51.486;7.144;2023-03-12T08:37:21;4.30;99.90
31733;DHT22;18312;51.486;7.144;2023-03-12T08:39:48;4.40;99.90
31733;DHT22;18312;51.486;7.144;2023-03-12T08:42:15;4.40;99.90
31733;DHT22;18312;51.486;7.144;2023-03-12T08:44:43;4.60;99.90
31733;DHT22;18312;51.486;7.144;2023-03-12T08:47:09;4.50;99.90
31733;DHT22;18312;51.486;7.144;2023-03-12T08:49:36;4.50;99.90
31733;DHT22;18312;51.486;7.144;2023-03-12T08:52:03;4.60;99.90
31733;DHT22;18312;51.486;7.144;2023-03-12T08:54:29;4.70;99.90
31733;DHT22;18312;51.486;7.144;2023-03-12T08:56:56;4.80;99.90
31733;DHT22;18312;51.486;7.144;2023-03-12T08:59:22;4.80;99.90
31733;DHT22;18312;51.486;7.144;2023-03-12T09:01:51;4.90;99.90
31733;DHT22;18312;51.486;7.144;2023-03-12T09:04:18;5.10;99.90
31733;DHT22;18312;51.486;7.144;2023-03-12T09:06:45;5.20;99.90
31733;DHT22;18312;51.486;7.144;2023-03-12T09:09:11;5.40;99.90
31733;DHT22;18312;51.486;7.144;2023-03-12T09:11:38;5.50;99.90
31733;DHT22;18312;51.486;7.144;2023-03-12T09:14:05;5.60;99.90
31733;DHT22;18312;51.486;7.144;2023-03-12T09:16:32;5.40;99.90
31733;DHT22;18312;51.486;7.144;2023-03-12T09:18:59;5.40;99.90
31733;DHT22;18312;51.486;7.144;2023-03-12T09:21:26;5.40;99.90
31733;DHT22;18312;51.486;7.144;2023-03-12T09:23:52;5.50;99.90
31733;DHT22;18312;51.486;7.144;2023-03-12T09:26:19;5.60;99.90
31733;DHT22;18312;51.486;7.144;2023-03-12T09:28:46;5.50;99.90
31733;DHT22;18312;51.486;7.144;2023-03-12T09:31:13;5.40;99.90
31733;DHT22;18312;51.486;7.144;2023-03-12T09:33:39;5.50;99.90
31733;DHT22;18312;51.486;7.144;2023-03-12T09:36:07;5.50;99.90
31733;DHT22;18312;51.486;7.144;2023-03-12T09:38:34;5.60;99.90
31733;DHT22;18312;51.486;7.144;2023-03-12T09:41:02;5.50;99.90
31733;DHT22;18312;51.486;7.144;2023-03-12T09:43:31;5.60;99.90
31733;DHT22;18312;51.486;7.144;2023-03-12T09:45:59;5.60;99.90
31733;DHT22;18312;51.486;7.144;2023-03-12T09:48:27;5.60;99.90
31733;DHT22;18312;51.486;7.144;2023-03-12T09:50:55;5.50;99.90
31733;DHT22;18312;51.486;7.144;2023-03-12T09:53:26;5.50;99.90
31733;DHT22;18312;51.486;7.144;2023-03-12T09:55:54;5.60;99.90
31733;DHT22;18312;51.486;7.144;2023-03-12T09:58:21;5.60;99.90
31733;DHT22;18312;51.486;7.144;2023-03-12T10:00:50;5.70;99.90
31733;DHT22;18312;51.486;7.144;2023-03-12T10:03:31;5.70;99.90
31733;DHT22;18312;51.486;7.144;2023-03-12T10:06:00;5.70;99.90
31733;DHT22;18312;51.486;7.144;2023-03-12T10:08:31;5.80;99.90
31733;DHT22;18312;51.486;7.144;2023-03-12T10:11:01;5.80;99.90
31733;DHT22;18312;51.486;7.144;2023-03-12T10:13:35;5.80;99.90
31733;DHT22;18312;51.486;7.144;2023-03-12T10:16:09;5.80;99.90
31733;DHT22;18312;51.486;7.144;2023-03-12T10:18:40;5.80;99.90
31733;DHT22;18312;51.486;7.144;2023-03-12T10:21:14;5.90;99.90
31733;DHT22;18312;51.486;7.144;2023-03-12T10:23:48;6.00;99.90
31733;DHT22;18312;51.486;7.144;2023-03-12T10:26:19;6.10;99.90
31733;DHT22;18312;51.486;7.144;2023-03-12T10:28:48;6.30;99.90
31733;DHT22;18312;51.486;7.144;2023-03-12T10:31:17;6.40;99.90
31733;DHT22;18312;51.486;7.144;2023-03-12T10:33:46;6.50;99.90
31733;DHT22;18312;51.486;7.144;2023-03-12T10:36:15;6.50;99.90
31733;DHT22;18312;51.486;7.144;2023-03-12T10:38:42;6.60;99.90
31733;DHT22;18312;51.486;7.144;2023-03-12T10:41:15;6.60;99.90
31733;DHT22;18312;51.486;7.144;2023-03-12T10:43:41;6.70;99.90
31733;DHT22;18312;51.486;7.144;2023-03-12T10:46:14;6.70;99.90
31733;DHT22;18312;51.486;7.144;2023-03-12T10:48:47;6.80;99.90
31733;DHT22;18312;51.486;7.144;2023-03-12T10:51:14;6.80;99.90
31733;DHT22;18312;51.486;7.144;2023-03-12T10:53:40;6.90;99.90
31733;DHT22;18312;51.486;7.144;2023-03-12T10:56:09;6.80;99.90
31733;DHT22;18312;51.486;7.144;2023-03-12T10:58:40;6.80;99.90
31733;DHT22;18312;51.486;7.144;2023-03-12T11:01:14;6.80;99.90
31733;DHT22;18312;51.486;7.144;2023-03-12T11:03:42;6.90;99.90
31733;DHT22;18312;51.486;7.144;2023-03-12T11:06:18;6.80;99.90
31733;DHT22;18312;51.486;7.144;2023-03-12T11:09:00;6.80;99.90
31733;DHT22;18312;51.486;7.144;2023-03-12T11:11:29;6.70;99.90
31733;DHT22;18312;51.486;7.144;2023-03-12T11:14:05;6.80;99.90
31733;DHT22;18312;51.486;7.144;2023-03-12T11:16:32;6.70;99.90
31733;DHT22;18312;51.486;7.144;2023-03-12T11:18:59;6.70;99.90
31733;DHT22;18312;51.486;7.144;2023-03-12T11:21:28;6.80;99.90
31733;DHT22;18312;51.486;7.144;2023-03-12T11:24:05;6.80;99.90
31733;DHT22;18312;51.486;7.144;2023-03-12T11:26:35;6.90;99.90
31733;DHT22;18312;51.486;7.144;2023-03-12T11:29:06;6.80;99.90
31733;DHT22;18312;51.486;7.144;2023-03-12T11:31:35;7.10;99.90
31733;DHT22;18312;51.486;7.144;2023-03-12T11:34:04;7.30;99.90
31733;DHT22;18312;51.486;7.144;2023-03-12T11:36:35;7.20;99.90
31733;DHT22;18312;51.486;7.144;2023-03-12T11:39:05;7.20;99.90
31733;DHT22;18312;51.486;7.144;2023-03-12T11:41:42;7.20;99.90
31733;DHT22;18312;51.486;7.144;2023-03-12T11:44:23;7.40;99.90
31733;DHT22;18312;51.486;7.144;2023-03-12T11:46:55;7.50;99.90
31733;DHT22;18312;51.486;7.144;2023-03-12T11:49:28;7.60;99.90
31733;DHT22;18312;51.486;7.144;2023-03-12T11:52:00;7.70;99.90
31733;DHT22;18312;51.486;7.144;2023-03-12T11:54:41;7.70;99.90
31733;DHT22;18312;51.486;7.144;2023-03-12T11:57:13;7.90;99.90
31733;DHT22;18312;51.486;7.144;2023-03-12T11:59:52;7.90;99.90
31733;DHT22;18312;51.486;7.144;2023-03-12T12:02:29;8.00;99.90
31733;DHT22;18312;51.486;7.144;2023-03-12T12:07:45;8.30;99.90
31733;DHT22;18312;51.486;7.144;2023-03-12T12:10:16;8.30;99.90
31733;DHT22;18312;51.486;7.144;2023-03-12T12:12:49;8.40;99.90
31733;DHT22;18312;51.486;7.144;2023-03-12T12:15:22;8.60;99.90
31733;DHT22;18312;51.486;7.144;2023-03-12T12:17:55;8.70;99.90
31733;DHT22;18312;51.486;7.144;2023-03-12T12:20:27;8.80;99.90
31733;DHT22;18312;51.486;7.144;2023-03-12T12:23:06;9.00;99.90
31733;DHT22;18312;51.486;7.144;2023-03-12T12:25:40;9.00;99.90
31733;DHT22;18312;51.486;7.144;2023-03-12T12:31:11;9.00;99.90
31733;DHT22;18312;51.486;7.144;2023-03-12T12:33:44;9.00;99.90
31733;DHT22;18312;51.486;7.144;2023-03-12T12:36:14;9.10;99.90
31733;DHT22;18312;51.486;7.144;2023-03-12T12:38:43;9.10;99.90
31733;DHT22;18312;51.486;7.144;2023-03-12T12:41:27;9.30;99.90
31733;DHT22;18312;51.486;7.144;2023-03-12T12:43:56;9.50;99.90
31733;DHT22;18312;51.486;7.144;2023-03-12T12:46:29;9.60;99.90
31733;DHT22;18312;51.486;7.144;2023-03-12T12:48:59;9.60;99.90
31733;DHT22;18312;51.486;7.144;2023-03-12T12:51:27;9.50;99.90
31733;DHT22;18312;51.486;7.144;2023-03-12T12:53:57;9.50;99.90
31733;DHT22;18312;51.486;7.144;2023-03-12T12:56:25;9.40;99.90
31733;DHT22;18312;51.486;7.144;2023-03-12T12:58:57;9.50;99.90
31733;DHT22;18312;51.486;7.144;2023-03-12T13:01:41;9.50;99.90
31733;DHT22;18312;51.486;7.144;2023-03-12T13:04:26;9.40;99.90
31733;DHT22;18312;51.486;7.144;2023-03-12T13:07:01;9.40;99.90
31733;DHT22;18312;51.486;7.144;2023-03-12T13:09:35;9.50;99.90
31733;DHT22;18312;51.486;7.144;2023-03-12T13:12:17;9.80;99.90
31733;DHT22;18312;51.486;7.144;2023-03-12T13:14:58;10.10;99.90
31733;DHT22;18312;51.486;7.144;2023-03-12T13:20:26;10.90;99.90
31733;DHT22;18312;51.486;7.144;2023-03-12T13:22:58;11.30;99.90
31733;DHT22;18312;51.486;7.144;2023-03-12T13:25:30;11.30;99.90
31733;DHT22;18312;51.486;7.144;2023-03-12T13:28:01;11.30;99.90
31733;DHT22;18312;51.486;7.144;2023-03-12T13:30:49;11.00;99.90
31733;DHT22;18312;51.486;7.144;2023-03-12T13:33:16;11.10;99.90
31733;DHT22;18312;51.486;7.144;2023-03-12T13:36:01;11.30;99.90
31733;DHT22;18312;51.486;7.144;2023-03-12T13:38:36;11.30;99.90
31733;DHT22;18312;51.486;7.144;2023-03-12T13:41:03;11.50;99.90
31733;DHT22;18312;51.486;7.144;2023-03-12T13:43:31;11.50;99.90
31733;DHT22;18312;51.486;7.144;2023-03-12T13:46:00;11.60;99.90
31733;DHT22;18312;51.486;7.144;2023-03-12T13:48:30;11.60;99.90
31733;DHT22;18312;51.486;7.144;2023-03-12T13:50:59;11.60;99.90
31733;DHT22;18312;51.486;7.144;2023-03-12T13:53:31;11.60;99.90
31733;DHT22;18312;51.486;7.144;2023-03-12T13:55:59;11.50;99.90
31733;DHT22;18312;51.486;7.144;2023-03-12T13:58:26;11.60;99.90
31733;DHT22;18312;51.486;7.144;2023-03-12T14:00:54;11.60;99.90
31733;DHT22;18312;51.486;7.144;2023-03-12T14:03:22;11.90;99.90
31733;DHT22;18312;51.486;7.144;2023-03-12T14:05:52;12.00;99.90
31733;DHT22;18312;51.486;7.144;2023-03-12T14:08:23;12.00;99.90
31733;DHT22;18312;51.486;7.144;2023-03-12T14:11:02;11.90;99.90
31733;DHT22;18312;51.486;7.144;2023-03-12T14:13:38;12.10;99.90
31733;DHT22;18312;51.486;7.144;2023-03-12T14:16:08;12.20;99.90
31733;DHT22;18312;51.486;7.144;2023-03-12T14:18:38;12.20;99.90
31733;DHT22;18312;51.486;7.144;2023-03-12T14:21:06;12.20;99.90
31733;DHT22;18312;51.486;7.144;2023-03-12T14:23:34;12.20;99.90
31733;DHT22;18312;51.486;7.144;2023-03-12T14:26:02;12.00;99.90
31733;DHT22;18312;51.486;7.144;2023-03-12T14:28:31;12.10;99.90
31733;DHT22;18312;51.486;7.144;2023-03-12T14:31:03;12.00;99.90
31733;DHT22;18312;51.486;7.144;2023-03-12T14:33:32;11.90;99.90
31733;DHT22;18312;51.486;7.144;2023-03-12T14:36:02;11.80;99.90
31733;DHT22;18312;51.486;7.144;2023-03-12T14:38:31;11.80;99.90
31733;DHT22;18312;51.486;7.144;2023-03-12T14:41:00;11.60;99.90
31733;DHT22;18312;51.486;7.144;2023-03-12T14:43:28;11.60;99.90
31733;DHT22;18312;51.486;7.144;2023-03-12T14:45:55;11.50;99.90
31733;DHT22;18312;51.486;7.144;2023-03-12T14:48:22;11.50;99.90
31733;DHT22;18312;51.486;7.144;2023-03-12T14:50:49;11.50;99.90
31733;DHT22;18312;51.486;7.144;2023-03-12T14:53:21;11.50;99.90
31733;DHT22;18312;51.486;7.144;2023-03-12T14:56:02;11.40;99.90
31733;DHT22;18312;51.486;7.144;2023-03-12T14:58:29;11.40;99.90
31733;DHT22;18312;51.486;7.144;2023-03-12T15:00:56;11.30;99.90
31733;DHT22;18312;51.486;7.144;2023-03-12T15:03:23;11.30;99.90
31733;DHT22;18312;51.486;7.144;2023-03-12T15:05:50;11.30;99.90
31733;DHT22;18312;51.486;7.144;2023-03-12T15:08:17;11.20;99.90
31733;DHT22;18312;51.486;7.144;2023-03-12T15:10:47;11.20;99.90
31733;DHT22;18312;51.486;7.144;2023-03-12T15:13:14;11.20;99.90
31733;DHT22;18312;51.486;7.144;2023-03-12T15:15:42;11.20;99.90
31733;DHT22;18312;51.486;7.144;2023-03-12T15:18:10;11.30;99.90
31733;DHT22;18312;51.486;7.144;2023-03-12T15:20:39;11.30;99.90
31733;DHT22;18312;51.486;7.144;2023-03-12T15:23:05;11.40;99.90
31733;DHT22;18312;51.486;7.144;2023-03-12T15:25:33;11.40;99.90
31733;DHT22;18312;51.486;7.144;2023-03-12T15:28:06;11.40;99.90
31733;DHT22;18312;51.486;7.144;2023-03-12T15:30:33;11.50;99.90
31733;DHT22;18312;51.486;7.144;2023-03-12T15:33:04;11.50;99.90
31733;DHT22;18312;51.486;7.144;2023-03-12T15:35:30;11.60;99.90
31733;DHT22;18312;51.486;7.144;2023-03-12T15:37:59;11.60;99.90
31733;DHT22;18312;51.486;7.144;2023-03-12T15:40:26;11.60;99.90
31733;DHT22;18312;51.486;7.144;2023-03-12T15:42:54;11.60;99.90
31733;DHT22;18312;51.486;7.144;2023-03-12T15:45:25;11.60;99.90
31733;DHT22;18312;51.486;7.144;2023-03-12T15:47:54;11.50;99.90
31733;DHT22;18312;51.486;7.144;2023-03-12T15:50:22;11.50;99.90
31733;DHT22;18312;51.486;7.144;2023-03-12T15:52:58;11.50;99.90
31733;DHT22;18312;51.486;7.144;2023-03-12T15:55:27;11.50;99.90
31733;DHT22;18312;51.486;7.144;2023-03-12T15:57:55;11.50;99.90
31733;DHT22;18312;51.486;7.144;2023-03-12T16:00:27;11.40;99.90
31733;DHT22;18312;51.486;7.144;2023-03-12T16:02:55;11.40;99.90